Time;durP1;ratioP1;P1;durP2;ratioP2;P2;SDS_P1;SDS_P2;PMS_P1;PMS_P2;Temp;Humidity;BMP_temperature;BMP_pressure;BME280_temperature;BME280_humidity;BME280_pressure;Samples;Min_cycle;Max_cycle;Signal;HPM_P1;HPM_P2
2024/02/16 00:01:11;;;;;;;31.00;16.05;;;;;;;7.03;79.63;100960.61;1723480;83;25632;-63
2024/02/16 00:03:38;;;;;;;26.80;14.03;;;;;;;7.01;79.69;100962.23;1723521;83;25483;-63
2024/02/16 00:06:06;;;;;;;25.52;13.28;;;;;;;6.99;79.71;100963.03;1723573;83;26599;-63
2024/02/16 00:08:34;;;;;;;27.47;14.90;;;;;;;7.00;79.75;100954.42;1723689;83;25700;-60
2024/02/16 00:11:01;;;;;;;25.05;15.10;;;;;;;7.02;79.67;100954.98;1723277;83;27352;-62
2024/02/16 00:13:27;;;;;;;29.37;16.50;;;;;;;7.00;79.63;100953.91;1723499;83;25407;-60
2024/02/16 00:15:54;;;;;;;44.38;22.27;;;;;;;7.02;79.85;100953.64;1723582;83;25607;-59
2024/02/16 00:18:21;;;;;;;27.95;13.58;;;;;;;7.03;79.82;100953.38;1723581;83;25938;-60
2024/02/16 00:20:47;;;;;;;27.02;13.45;;;;;;;7.04;79.70;100949.59;1723576;83;25360;-61
2024/02/16 00:23:13;;;;;;;24.70;12.37;;;;;;;7.03;79.59;100949.86;1723578;83;27340;-63
2024/02/16 00:25:40;;;;;;;27.52;13.72;;;;;;;7.02;79.59;100955.78;1723557;83;25427;-61
2024/02/16 00:28:08;;;;;;;23.67;13.85;;;;;;;7.02;79.47;100956.33;1723688;83;25581;-59
2024/02/16 00:30:36;;;;;;;25.70;12.82;;;;;;;7.00;79.51;100953.08;1723623;83;25682;-60
2024/02/16 00:33:03;;;;;;;24.32;13.35;;;;;;;6.98;79.52;100949.34;1723654;83;25577;-60
2024/02/16 00:35:33;;;;;;;23.67;12.40;;;;;;;6.97;79.52;100957.67;1717566;83;27342;-61
2024/02/16 00:37:58;;;;;;;20.88;12.28;;;;;;;6.97;79.60;100957.12;1714361;82;25930;-60
2024/02/16 00:40:26;;;;;;;20.85;10.63;;;;;;;6.96;79.48;100962.22;1715500;83;25621;-60
2024/02/16 00:42:52;;;;;;;19.92;11.68;;;;;;;6.96;79.56;100952.02;1715544;83;26200;-61
2024/02/16 00:45:19;;;;;;;22.10;11.40;;;;;;;6.98;79.62;100961.95;1715651;83;25570;-61
2024/02/16 00:47:46;;;;;;;23.32;11.60;;;;;;;6.97;79.55;100957.12;1715701;83;27256;-60
2024/02/16 00:50:13;;;;;;;23.70;11.93;;;;;;;6.96;79.52;100954.70;1715605;83;25577;-60
2024/02/16 00:52:40;;;;;;;21.52;12.63;;;;;;;6.96;79.32;100963.56;1715721;83;25572;-61
2024/02/16 00:55:07;;;;;;;22.35;12.88;;;;;;;6.97;79.49;100954.98;1715590;83;25632;-61
2024/02/16 00:57:34;;;;;;;23.57;12.47;;;;;;;6.96;79.51;100948.77;1715637;83;25392;-61
2024/02/16 01:00:01;;;;;;;19.05;11.18;;;;;;;6.97;79.47;100950.95;1715597;83;27493;-61
2024/02/16 01:02:27;;;;;;;22.82;11.70;;;;;;;6.95;79.38;100951.73;1715602;83;25443;-61
2024/02/16 01:04:57;;;;;;;22.80;12.10;;;;;;;6.93;79.39;100950.68;1715649;83;25407;-60
2024/02/16 01:07:21;;;;;;;20.20;12.47;;;;;;;6.91;79.34;100944.22;1715068;83;25685;-61
2024/02/16 01:09:48;;;;;;;19.92;11.90;;;;;;;6.89;79.34;100938.28;1715644;83;25651;-60
2024/02/16 01:12:14;;;;;;;20.88;11.15;;;;;;;6.88;79.36;100928.62;1715586;83;26556;-61
2024/02/16 01:14:41;;;;;;;19.45;11.70;;;;;;;6.88;79.34;100933.20;1715480;83;25888;-60
2024/02/16 01:17:09;;;;;;;18.75;10.43;;;;;;;6.85;79.25;100929.15;1715599;83;25655;-61
2024/02/16 01:19:35;;;;;;;20.48;9.98;;;;;;;6.84;79.17;100920.00;1715557;83;25676;-61
2024/02/16 01:22:03;;;;;;;15.43;10.48;;;;;;;6.83;79.18;100921.89;1715639;83;25622;-61
2024/02/16 01:24:30;;;;;;;19.30;10.80;;;;;;;6.83;79.08;100920.55;1715617;83;27383;-60
2024/02/16 01:26:57;;;;;;;18.60;10.28;;;;;;;6.83;79.11;100915.72;1715426;83;25650;-60
2024/02/16 01:29:24;;;;;;;15.58;9.93;;;;;;;6.81;79.11;100916.50;1715587;83;25586;-60
2024/02/16 01:31:50;;;;;;;16.23;9.63;;;;;;;6.79;79.07;100918.11;1715510;83;25668;-62
2024/02/16 01:34:16;;;;;;;18.75;10.45;;;;;;;6.76;79.04;100914.63;1715785;83;25607;-61
2024/02/16 01:36:42;;;;;;;16.05;10.10;;;;;;;6.75;79.10;100909.52;1723548;83;27344;-61
2024/02/16 01:39:08;;;;;;;14.55;9.40;;;;;;;6.74;79.02;100914.07;1723415;83;25422;-60
2024/02/16 01:41:40;;;;;;;17.32;9.73;;;;;;;6.70;78.97;100903.05;1723477;83;25389;-60
2024/02/16 01:44:06;;;;;;;14.43;9.50;;;;;;;6.68;78.86;100903.06;1723530;83;25632;-58
2024/02/16 01:46:35;;;;;;;17.67;9.60;;;;;;;6.66;78.84;100894.47;1723540;83;25570;-60
2024/02/16 01:49:02;;;;;;;18.40;9.88;;;;;;;6.63;78.80;100896.34;1723689;83;27509;-61
2024/02/16 01:51:30;;;;;;;18.50;10.18;;;;;;;6.59;78.83;100894.72;1723446;83;25579;-60
2024/02/16 01:53:57;;;;;;;16.52;9.33;;;;;;;6.57;78.86;100896.84;1723547;83;25463;-60
2024/02/16 01:56:26;;;;;;;16.10;9.73;;;;;;;6.54;78.85;100900.09;1723427;83;25684;-59
2024/02/16 01:58:52;;;;;;;15.53;9.38;;;;;;;6.51;78.88;100892.56;1723656;83;25549;-60
2024/02/16 02:01:19;;;;;;;14.38;9.28;;;;;;;6.47;78.87;100894.97;1723543;83;27471;-60
2024/02/16 02:03:45;;;;;;;16.97;9.65;;;;;;;6.47;78.89;100894.14;1723411;83;25416;-60
2024/02/16 02:06:12;;;;;;;14.40;9.20;;;;;;;6.45;78.91;100893.61;1723506;83;25462;-61
2024/02/16 02:08:38;;;;;;;14.45;9.20;;;;;;;6.43;79.02;100891.19;1723497;83;25622;-61
2024/02/16 02:11:05;;;;;;;14.03;8.43;;;;;;;6.44;79.00;100898.73;1723569;83;25598;-61
2024/02/16 02:13:32;;;;;;;16.37;8.85;;;;;;;6.43;79.00;100895.77;1723520;83;27772;-61
2024/02/16 02:15:59;;;;;;;13.30;9.00;;;;;;;6.42;78.98;100899.52;1723446;83;25714;-60
2024/02/16 02:18:26;;;;;;;15.85;8.75;;;;;;;6.41;78.97;100896.03;1723531;83;25558;-60
2024/02/16 02:20:53;;;;;;;15.32;9.23;;;;;;;6.40;78.93;100893.60;1723505;83;26180;-61
2024/02/16 02:23:20;;;;;;;18.10;9.08;;;;;;;6.41;78.91;100891.20;1723536;83;25581;-60
2024/02/16 02:25:48;;;;;;;14.25;8.58;;;;;;;6.40;78.90;100888.23;1723512;83;27345;-60
2024/02/16 02:28:15;;;;;;;17.70;9.38;;;;;;;6.38;78.89;100885.80;1723408;83;27147;-60
2024/02/16 02:30:45;;;;;;;15.43;8.58;;;;;;;6.35;78.90;100885.81;1723548;83;25456;-61
2024/02/16 02:33:13;;;;;;;15.83;8.78;;;;;;;6.34;78.83;100878.81;1723575;83;26402;-60
2024/02/16 02:35:40;;;;;;;18.07;8.90;;;;;;;6.33;78.81;100879.91;1719715;83;25447;-60
2024/02/16 02:38:06;;;;;;;17.55;10.23;;;;;;;6.32;78.77;100882.31;1715506;83;27336;-61
2024/02/16 02:40:33;;;;;;;15.40;8.78;;;;;;;6.30;78.79;100879.61;1715453;83;25640;-59
2024/02/16 02:42:59;;;;;;;14.70;9.13;;;;;;;6.28;78.76;100879.06;1715500;83;25585;-58
2024/02/16 02:45:27;;;;;;;17.92;9.68;;;;;;;6.26;78.71;100878.53;1715564;83;26213;-59
2024/02/16 02:47:53;;;;;;;14.60;9.60;;;;;;;6.24;78.75;100884.71;1715734;82;25637;-58
2024/02/16 02:50:19;;;;;;;15.78;8.58;;;;;;;6.21;78.54;100882.01;1715716;83;27395;-59
2024/02/16 02:52:45;;;;;;;13.75;9.28;;;;;;;6.19;78.60;100885.50;1715609;83;25462;-60
2024/02/16 02:55:13;;;;;;;14.83;8.95;;;;;;;6.15;78.65;100882.54;1715662;83;25620;-60
2024/02/16 02:57:39;;;;;;;14.53;8.98;;;;;;;6.13;78.59;100886.03;1715654;83;25692;-60
2024/02/16 03:00:11;;;;;;;14.35;8.65;;;;;;;6.07;78.51;100881.70;1715647;83;25727;-60
2024/02/16 03:02:43;;;;;;;15.18;9.10;;;;;;;6.09;78.56;100888.16;1715640;83;27347;-59
2024/02/16 03:05:09;;;;;;;15.75;8.93;;;;;;;6.04;78.53;100895.66;1715635;83;25605;-60
2024/02/16 03:07:35;;;;;;;17.73;10.35;;;;;;;6.00;78.57;100893.23;1715703;83;25545;-60
2024/02/16 03:10:04;;;;;;;17.30;9.80;;;;;;;5.96;78.49;100886.79;1715655;83;25741;-58
2024/02/16 03:12:32;;;;;;;17.35;9.58;;;;;;;5.92;78.57;100886.99;1715979;83;25621;-60
2024/02/16 03:14:58;;;;;;;15.55;9.90;;;;;;;5.86;78.60;100888.86;1715730;82;27493;-63
2024/02/16 03:17:25;;;;;;;16.90;9.25;;;;;;;5.82;78.63;100888.30;1715636;83;25458;-59
2024/02/16 03:19:52;;;;;;;17.15;9.38;;;;;;;5.77;78.67;100881.02;1715686;83;25675;-60
2024/02/16 03:22:18;;;;;;;16.73;9.13;;;;;;;5.72;78.79;100887.71;1715600;83;25630;-61
2024/02/16 03:24:45;;;;;;;16.05;9.55;;;;;;;5.68;78.80;100889.31;1715718;83;25624;-60
2024/02/16 03:27:12;;;;;;;19.45;10.48;;;;;;;5.63;78.87;100883.38;1715684;83;27504;-60
2024/02/16 03:29:38;;;;;;;15.43;10.10;;;;;;;5.60;78.96;100887.92;1715585;83;25561;-60
2024/02/16 03:32:04;;;;;;;19.57;10.70;;;;;;;5.56;79.03;100897.03;1715678;83;25569;-59
2024/02/16 03:34:31;;;;;;;15.72;10.23;;;;;;;5.52;79.02;100892.47;1715590;83;25724;-59
2024/02/16 03:36:58;;;;;;;22.48;10.88;;;;;;;5.50;79.05;100897.26;1722345;82;25394;-60
2024/02/16 03:39:25;;;;;;;17.50;10.48;;;;;;;5.46;79.20;100891.61;1723634;83;27315;-60
2024/02/16 03:41:51;;;;;;;17.87;10.95;;;;;;;5.41;79.18;100891.06;1723558;83;25573;-59
2024/02/16 03:44:17;;;;;;;18.23;10.45;;;;;;;5.40;79.25;100898.03;1723601;83;25578;-60
2024/02/16 03:46:44;;;;;;;18.62;10.00;;;;;;;5.35;79.25;100886.73;1723565;83;25684;-60
2024/02/16 03:49:10;;;;;;;23.07;10.98;;;;;;;5.31;79.23;100895.03;1723613;83;25631;-60
2024/02/16 03:51:37;;;;;;;20.77;11.03;;;;;;;5.28;79.21;100900.08;1723675;83;27319;-60
2024/02/16 03:54:04;;;;;;;16.15;10.55;;;;;;;5.24;79.27;100897.94;1723522;83;25622;-60
2024/02/16 03:56:31;;;;;;;20.08;10.95;;;;;;;5.21;79.30;100892.25;1723578;83;25562;-58
2024/02/16 03:58:58;;;;;;;16.65;11.28;;;;;;;5.18;79.35;100894.13;1723593;83;26275;-60
2024/02/16 04:01:25;;;;;;;19.57;11.10;;;;;;;5.14;79.44;100887.66;1723736;83;25497;-61
2024/02/16 04:03:52;;;;;;;15.70;10.35;;;;;;;5.11;79.44;100890.33;1723632;83;27934;-59
2024/02/16 04:06:20;;;;;;;19.52;11.38;;;;;;;5.08;79.45;100889.50;1723524;83;26033;-59
2024/02/16 04:08:48;;;;;;;19.02;11.03;;;;;;;5.04;79.39;100883.84;1723597;83;25540;-60
2024/02/16 04:11:15;;;;;;;17.30;10.68;;;;;;;5.02;79.51;100885.98;1723601;83;25710;-60
2024/02/16 04:13:41;;;;;;;17.15;10.30;;;;;;;5.01;79.46;100895.08;1723599;83;25449;-59
2024/02/16 04:16:08;;;;;;;17.45;11.18;;;;;;;4.98;79.52;100882.72;1723624;83;27709;-59
2024/02/16 04:18:34;;;;;;;17.82;11.22;;;;;;;4.95;79.59;100887.25;1723527;83;25454;-58
2024/02/16 04:21:01;;;;;;;19.27;11.00;;;;;;;4.92;79.64;100889.93;1723584;83;25516;-59
2024/02/16 04:23:27;;;;;;;19.98;10.75;;;;;;;4.90;79.61;100892.03;1723508;83;26479;-60
2024/02/16 04:25:54;;;;;;;18.85;10.75;;;;;;;4.89;79.63;100894.97;1723698;83;25553;-60
2024/02/16 04:28:20;;;;;;;21.48;12.37;;;;;;;4.88;79.62;100897.39;1723643;83;27339;-60
2024/02/16 04:30:46;;;;;;;19.27;10.93;;;;;;;4.86;79.57;100896.30;1723506;83;25554;-60
2024/02/16 04:33:13;;;;;;;20.45;11.22;;;;;;;4.83;79.57;100894.13;1723579;83;25392;-60
2024/02/16 04:35:39;;;;;;;20.40;11.08;;;;;;;4.81;79.60;100891.70;1722180;83;27759;-59
2024/02/16 04:38:06;;;;;;;18.10;11.00;;;;;;;4.80;79.66;100897.31;1715727;83;25565;-61
2024/02/16 04:40:37;;;;;;;20.05;10.88;;;;;;;4.79;79.69;100893.03;1715591;83;27383;-60
2024/02/16 04:43:04;;;;;;;18.37;11.18;;;;;;;4.77;79.66;100891.95;1715510;83;25602;-60
2024/02/16 04:45:31;;;;;;;17.15;11.22;;;;;;;4.76;79.65;100886.30;1715671;83;25356;-60
2024/02/16 04:47:59;;;;;;;18.40;11.10;;;;;;;4.74;79.63;100884.95;1715596;83;25487;-59
2024/02/16 04:50:25;;;;;;;18.98;9.93;;;;;;;4.72;79.61;100883.06;1715639;83;25546;-58
2024/02/16 04:52:51;;;;;;;19.92;10.90;;;;;;;4.71;79.58;100885.45;1715595;83;27319;-60
2024/02/16 04:55:17;;;;;;;21.05;11.33;;;;;;;4.68;79.56;100880.89;1715585;83;27229;-59
2024/02/16 04:57:43;;;;;;;21.25;11.00;;;;;;;4.66;79.58;100874.15;1715727;83;25434;-59
2024/02/16 05:00:13;;;;;;;22.13;11.18;;;;;;;4.63;79.57;100883.52;1715576;83;27770;-59
2024/02/16 05:02:39;;;;;;;24.32;12.03;;;;;;;4.61;79.54;100876.25;1715742;83;25459;-60
2024/02/16 05:05:08;;;;;;;22.93;12.23;;;;;;;4.57;79.66;100871.13;1715555;83;29480;-60
2024/02/16 05:07:36;;;;;;;19.98;11.48;;;;;;;4.57;79.65;100877.03;1715514;83;25577;-60
2024/02/16 05:10:04;;;;;;;20.97;11.43;;;;;;;4.55;79.74;100869.24;1715595;83;25498;-59
2024/02/16 05:12:30;;;;;;;18.67;12.25;;;;;;;4.49;79.68;100872.42;1685160;83;25626;-59
2024/02/16 05:14:57;;;;;;;21.35;12.20;;;;;;;4.47;79.80;100870.50;1715632;83;25580;-58
2024/02/16 05:17:24;;;;;;;21.35;12.10;;;;;;;4.45;79.88;100884.69;1715554;83;27439;-59
2024/02/16 05:19:50;;;;;;;21.65;11.45;;;;;;;4.43;79.91;100873.42;1715450;83;25387;-59
2024/02/16 05:22:21;;;;;;;23.10;11.85;;;;;;;4.43;79.97;100875.30;1715594;83;25657;-59
2024/02/16 05:24:48;;;;;;;18.32;11.75;;;;;;;4.40;79.85;100871.23;1715528;83;27778;-58
2024/02/16 05:27:15;;;;;;;21.33;11.78;;;;;;;4.37;79.97;100868.27;1715609;83;25635;-58
2024/02/16 05:29:42;;;;;;;21.30;12.15;;;;;;;4.35;79.97;100874.41;1715545;83;29637;-59
2024/02/16 05:32:10;;;;;;;25.02;12.78;;;;;;;4.32;80.07;100869.02;1715510;83;25660;-57
2024/02/16 05:34:37;;;;;;;20.52;12.18;;;;;;;4.30;80.07;100875.16;1715725;83;25621;-60
2024/02/16 05:37:06;;;;;;;21.68;12.47;;;;;;;4.28;80.08;100879.42;1685129;83;26095;-60
2024/02/16 05:39:43;;;;;;;22.62;12.53;;;;;;;4.26;80.10;100880.22;1715706;83;25636;-61
2024/02/16 05:42:06;;;;;;;24.47;12.75;;;;;;;4.27;80.17;100881.02;1714410;83;27341;-57
2024/02/16 05:44:32;;;;;;;20.32;13.28;;;;;;;4.26;80.16;100881.55;1715602;83;25611;-61
2024/02/16 05:46:59;;;;;;;23.87;13.13;;;;;;;4.24;80.12;100886.36;1715631;83;25640;-60
2024/02/16 05:49:26;;;;;;;22.75;12.40;;;;;;;4.24;80.19;100898.92;1715596;83;25741;-60
2024/02/16 05:54:33;;;;;;;23.38;12.80;;;;;;;4.21;80.12;100903.46;1622055;88;27356;-56
2024/02/16 05:57:00;;;;;;;21.48;12.18;;;;;;;4.19;80.24;100901.54;1621945;88;25549;-58
2024/02/16 05:59:27;;;;;;;26.70;14.38;;;;;;;4.20;80.25;100907.19;1622092;88;25487;-60
2024/02/16 06:01:53;;;;;;;25.23;13.70;;;;;;;4.20;80.09;100901.83;1622076;88;26238;-61
2024/02/16 06:04:20;;;;;;;26.17;13.40;;;;;;;4.19;80.27;100910.41;1622058;88;25452;-59
2024/02/16 06:06:46;;;;;;;23.55;13.18;;;;;;;4.17;80.33;100901.82;1622104;88;27404;-60
2024/02/16 06:09:13;;;;;;;26.15;13.85;;;;;;;4.17;80.40;100902.33;1622026;88;25559;-60
2024/02/16 06:11:39;;;;;;;31.62;13.55;;;;;;;4.17;80.34;100900.98;1622072;88;25516;-62
2024/02/16 06:14:06;;;;;;;22.95;12.70;;;;;;;4.18;80.33;100909.31;1621621;88;25825;-61
2024/02/16 06:16:32;;;;;;;23.80;12.47;;;;;;;4.19;80.38;100912.25;1620564;88;25778;-61
2024/02/16 06:18:58;;;;;;;26.95;13.53;;;;;;;4.18;80.40;100914.67;1622157;88;27304;-62
2024/02/16 06:21:25;;;;;;;24.30;13.58;;;;;;;4.19;80.40;100914.93;1621976;88;27123;-61
2024/02/16 06:23:51;;;;;;;26.68;14.10;;;;;;;4.19;80.47;100913.08;1622018;88;25596;-60
2024/02/16 06:26:17;;;;;;;22.52;13.20;;;;;;;4.22;80.44;100926.48;1622043;88;25842;-61
2024/02/16 06:28:44;;;;;;;27.48;14.23;;;;;;;4.23;80.48;100922.76;1622108;88;25731;-59
2024/02/16 06:31:14;;;;;;;25.55;14.00;;;;;;;4.24;80.57;100925.70;1693752;83;28137;-61
2024/02/16 06:33:41;;;;;;;23.22;13.20;;;;;;;4.27;80.60;100928.71;1715525;83;25414;-61
2024/02/16 06:36:09;;;;;;;27.30;14.05;;;;;;;4.30;80.61;100928.72;1716121;83;25572;-60
2024/02/16 06:38:37;;;;;;;21.70;14.07;;;;;;;4.34;80.69;100931.16;1723767;83;26656;-60
2024/02/16 06:41:04;;;;;;;28.38;14.03;;;;;;;4.40;80.60;100930.71;1723550;83;25589;-60
2024/02/16 06:43:31;;;;;;;26.80;14.35;;;;;;;4.44;80.49;100933.16;1723493;83;27400;-60
2024/02/16 06:45:58;;;;;;;27.20;14.13;;;;;;;4.48;80.37;100934.28;1723441;83;25416;-59
2024/02/16 06:48:24;;;;;;;25.45;14.20;;;;;;;4.51;80.27;100935.09;1723498;83;25580;-61
2024/02/16 06:50:51;;;;;;;24.40;14.65;;;;;;;4.52;80.29;100934.05;1723673;83;25633;-60
2024/02/16 06:53:19;;;;;;;35.03;15.83;;;;;;;4.58;80.34;100940.25;1723589;83;25578;-65
2024/02/16 06:55:45;;;;;;;27.35;14.35;;;;;;;4.63;80.47;100942.48;1723556;83;27527;-61
2024/02/16 06:58:11;;;;;;;27.20;14.93;;;;;;;4.69;80.54;100944.66;1723468;83;25706;-59
2024/02/16 07:00:38;;;;;;;25.52;14.65;;;;;;;4.81;80.60;100947.19;1723541;83;25224;-60
2024/02/16 07:03:05;;;;;;;27.80;14.73;;;;;;;4.93;80.89;100955.07;1723445;83;25624;-60
2024/02/16 07:05:32;;;;;;;24.18;14.05;;;;;;;5.10;80.85;100941.53;1723502;83;25418;-60
2024/02/16 07:15:58;;;;;;;30.57;14.47;;;;;;;5.76;79.48;100940.62;1723539;83;25392;-61
2024/02/16 07:18:26;;;;;;;27.98;13.78;;;;;;;6.05;79.42;100950.20;1723517;83;25609;-59
2024/02/16 07:20:54;;;;;;;27.62;14.47;;;;;;;6.25;78.79;100952.95;1723541;83;25632;-61
2024/02/16 07:23:21;;;;;;;26.70;14.23;;;;;;;6.40;78.06;100946.80;1723488;83;27334;-61
2024/02/16 07:25:49;;;;;;;29.23;13.95;;;;;;;6.48;77.44;100954.35;1723452;83;25420;-60
2024/02/16 07:28:16;;;;;;;26.60;13.98;;;;;;;6.66;75.23;100955.75;1723441;83;25474;-58
2024/02/16 07:30:45;;;;;;;27.05;14.63;;;;;;;6.87;76.98;100956.57;1723582;83;25615;-60
2024/02/16 07:33:13;;;;;;;29.23;14.05;;;;;;;6.98;75.54;100953.89;1723703;83;25424;-60
2024/02/16 07:35:40;;;;;;;28.25;14.33;;;;;;;7.17;76.11;100963.57;1723746;83;28040;-61
2024/02/16 07:38:07;;;;;;;25.60;14.00;;;;;;;7.41;76.47;100957.12;1715247;82;25479;-60
2024/02/16 07:40:34;;;;;;;23.12;13.50;;;;;;;7.77;76.27;100963.23;1713193;83;25456;-60
2024/02/16 07:43:03;;;;;;;24.47;12.55;;;;;;;7.93;75.09;100959.94;1713057;83;25946;-60
2024/02/16 07:45:31;;;;;;;22.23;13.17;;;;;;;8.15;72.36;100959.59;1713415;83;25457;-60
2024/02/16 07:47:58;;;;;;;23.00;12.47;;;;;;;8.25;73.41;100960.09;1713090;83;28082;-61
2024/02/16 07:50:26;;;;;;;21.80;12.10;;;;;;;8.37;72.37;100963.26;1713030;83;25540;-61
2024/02/16 07:52:54;;;;;;;18.60;11.35;;;;;;;8.44;71.03;100960.30;1713045;83;25634;-61
2024/02/16 07:55:24;;;;;;;23.40;11.70;;;;;;;8.57;70.27;100955.64;1713074;83;26358;-59
2024/02/16 07:57:52;;;;;;;16.77;10.25;;;;;;;8.79;72.13;100959.83;1713230;83;25619;-61
2024/02/16 08:00:20;;;;;;;19.95;11.38;;;;;;;9.25;73.33;100958.66;1713097;83;27312;-60
2024/02/16 08:02:48;;;;;;;18.65;11.48;;;;;;;9.53;68.52;100962.44;1712996;83;25680;-60
2024/02/16 08:05:16;;;;;;;17.12;10.48;;;;;;;9.65;68.18;100967.45;1713089;83;25450;-60
2024/02/16 08:07:43;;;;;;;19.42;10.90;;;;;;;9.76;67.97;100959.51;1713065;83;25964;-60
2024/02/16 08:10:12;;;;;;;19.35;10.70;;;;;;;9.87;67.12;100959.63;1713107;83;25398;-61
2024/02/16 08:12:38;;;;;;;;;;;;;;;9.99;66.79;100963.28;1715631;83;27302;-60
2024/02/16 08:15:08;;;;;;;19.37;11.20;;;;;;;10.16;66.31;100953.34;1713022;83;25431;-61
2024/02/16 08:17:40;;;;;;;18.92;10.82;;;;;;;10.34;65.56;100955.86;1713052;83;25595;-61
2024/02/16 08:20:09;;;;;;;21.62;11.80;;;;;;;10.72;66.73;100951.02;1713089;83;25613;-60
2024/02/16 08:22:39;;;;;;;16.77;10.28;;;;;;;10.97;65.66;100960.64;1713132;83;25629;-60
2024/02/16 08:25:08;;;;;;;19.73;10.70;;;;;;;11.08;60.41;100957.22;1713034;83;28090;-63
2024/02/16 08:27:35;;;;;;;20.25;11.90;;;;;;;11.08;62.21;100959.92;1713148;83;35250;-63
2024/02/16 08:30:04;;;;;;;18.87;11.00;;;;;;;11.10;60.80;100965.31;1713077;83;25475;-62
2024/02/16 08:32:31;;;;;;;16.60;10.68;;;;;;;11.07;61.35;100953.71;1713180;83;25608;-62
2024/02/16 08:34:58;;;;;;;19.55;11.38;;;;;;;11.26;60.90;100953.66;1713109;83;25469;-62
2024/02/16 08:37:26;;;;;;;16.40;10.38;;;;;;;11.32;61.28;100946.24;1716433;82;27344;-62
2024/02/16 08:39:54;;;;;;;23.65;10.78;;;;;;;11.50;62.40;100945.37;1723525;83;25560;-63
2024/02/16 08:42:22;;;;;;;18.73;11.65;;;;;;;11.91;61.92;100951.40;1723572;83;25578;-61
2024/02/16 08:44:51;;;;;;;14.18;10.23;;;;;;;12.05;59.95;100947.88;1723625;83;25620;-62
2024/02/16 08:47:20;;;;;;;16.90;9.73;;;;;;;12.29;60.81;100944.93;1723818;83;25656;-62
2024/02/16 08:49:47;;;;;;;14.73;9.43;;;;;;;12.57;60.54;100939.45;1723541;83;27321;-61
2024/02/16 08:52:15;;;;;;;17.25;10.82;;;;;;;12.91;59.04;100944.34;1723479;83;25697;-61
2024/02/16 08:54:44;;;;;;;17.52;9.85;;;;;;;13.15;59.74;100950.02;1723599;83;25487;-62
2024/02/16 08:57:11;;;;;;;16.60;9.98;;;;;;;13.67;60.38;100948.14;1723723;83;25571;-62
2024/02/16 08:59:39;;;;;;;17.52;9.83;;;;;;;14.26;60.95;100946.48;1723615;83;25477;-62
2024/02/16 09:02:07;;;;;;;13.65;9.40;;;;;;;14.53;55.31;100943.46;1723595;83;28115;-61
2024/02/16 09:04:35;;;;;;;18.25;10.60;;;;;;;14.34;53.21;100947.85;1723492;83;25627;-62
2024/02/16 09:07:03;;;;;;;16.52;10.55;;;;;;;14.24;54.74;100950.88;1707981;83;25636;-60
2024/02/16 09:09:30;;;;;;;20.72;13.75;;;;;;;14.48;55.07;100943.62;1707932;84;25734;-60
2024/02/16 09:11:58;;;;;;;14.20;9.30;;;;;;;14.94;52.63;100942.76;1707955;84;25399;-61
2024/02/16 09:14:26;;;;;;;13.70;9.03;;;;;;;15.33;54.93;100934.10;1707973;84;27308;-58
2024/02/16 09:16:54;;;;;;;16.07;9.30;;;;;;;15.97;53.21;100934.59;1721651;83;25622;-60
2024/02/16 09:19:21;;;;;;;15.35;9.48;;;;;;;16.56;51.26;100933.68;1723583;83;25547;-60
2024/02/16 09:21:51;;;;;;;14.65;9.28;;;;;;;16.86;51.54;100931.47;1723520;83;25661;-60
2024/02/16 09:24:18;;;;;;;14.63;9.00;;;;;;;16.93;50.12;100933.09;1723591;83;25478;-60
2024/02/16 09:26:46;;;;;;;14.95;8.33;;;;;;;16.85;48.85;100933.39;1723573;83;28343;-60
2024/02/16 09:29:14;;;;;;;16.70;9.83;;;;;;;17.00;50.92;100931.96;1723460;83;25236;-61
2024/02/16 09:31:44;;;;;;;14.15;9.53;;;;;;;17.28;50.44;100929.97;1723785;83;25485;-57
2024/02/16 09:34:13;;;;;;;13.20;9.20;;;;;;;17.71;51.07;100926.73;1723551;83;26554;-53
2024/02/16 09:36:43;;;;;;;14.40;9.80;;;;;;;18.19;51.64;100922.16;1723548;83;25325;-56
2024/02/16 09:39:13;;;;;;;17.02;10.50;;;;;;;18.57;47.89;100930.49;1723509;83;26826;-56
2024/02/16 09:41:45;;;;;;;22.90;11.08;;;;;;;18.29;47.43;100927.94;1723588;83;25554;-56
2024/02/16 09:44:13;;;;;;;16.02;9.43;;;;;;;18.25;47.63;100924.31;1723547;83;25556;-54
2024/02/16 09:46:40;;;;;;;14.25;9.75;;;;;;;18.48;47.44;100913.62;1723724;83;26509;-54
2024/02/16 09:49:08;;;;;;;13.83;9.85;;;;;;;18.72;46.98;100922.11;1723568;83;25581;-54
2024/02/16 09:51:40;;;;;;;17.23;9.50;;;;;;;18.62;46.75;100915.18;1723519;83;28104;-59
2024/02/16 09:54:07;;;;;;;17.17;10.48;;;;;;;18.76;45.92;100914.77;1723331;83;25721;-60
2024/02/16 09:56:35;;;;;;;16.97;10.48;;;;;;;19.17;46.75;100910.02;1722399;83;25646;-59
2024/02/16 09:59:02;;;;;;;14.87;9.53;;;;;;;19.91;47.16;100906.75;1722393;83;25968;-59
2024/02/16 10:01:30;;;;;;;13.30;8.83;;;;;;;20.57;45.79;100898.14;1722521;83;25685;-60
2024/02/16 10:04:10;;;;;;;18.30;10.10;;;;;;;21.02;45.59;100887.02;1701859;83;27660;-59
2024/02/16 10:06:50;;;;;;;15.75;9.30;;;;;;;20.96;42.13;100886.30;1723442;83;25997;-60
2024/02/16 10:09:35;;;;;;;13.38;8.50;;;;;;;20.48;41.75;100891.49;1722652;83;25614;-60
2024/02/16 10:12:04;;;;;;;14.63;9.15;;;;;;;20.39;42.36;100888.15;1722066;83;26127;-60
2024/02/16 10:14:31;;;;;;;12.15;8.20;;;;;;;20.02;41.65;100890.50;1701900;83;25597;-59
2024/02/16 10:17:02;;;;;;;13.17;8.40;;;;;;;19.87;42.26;100896.24;1722516;83;28326;-60
2024/02/16 10:19:40;;;;;;;11.63;8.13;;;;;;;20.05;43.04;100893.32;1722242;83;25686;-59
2024/02/16 10:22:13;;;;;;;11.53;7.55;;;;;;;20.42;43.76;100889.39;1722321;83;25977;-60
2024/02/16 10:24:42;;;;;;;12.30;8.35;;;;;;;20.47;41.70;100884.98;1722972;83;25642;-59
2024/02/16 10:27:18;;;;;;;12.70;8.90;;;;;;;20.51;42.39;100883.09;1723623;83;25612;-59
2024/02/16 10:29:51;;;;;;;11.65;7.80;;;;;;;20.80;41.08;100880.92;1723524;83;27319;-60
2024/02/16 10:32:20;;;;;;;12.00;7.92;;;;;;;20.87;41.88;100881.86;1721817;83;25631;-64
2024/02/16 10:34:49;;;;;;;12.40;7.80;;;;;;;21.02;41.90;100877.98;1723687;83;25558;-63
2024/02/16 10:37:18;;;;;;;11.48;7.15;;;;;;;20.91;41.47;100868.17;1723181;83;25568;-63
2024/02/16 10:39:48;;;;;;;13.35;7.15;;;;;;;21.21;39.69;100875.75;1713084;83;25594;-62
2024/02/16 10:42:19;;;;;;;15.05;7.87;;;;;;;20.84;40.12;100863.91;1712997;83;27796;-60
2024/02/16 10:44:48;;;;;;;10.45;6.22;;;;;;;20.94;40.01;100860.55;1712907;83;25623;-60
2024/02/16 10:47:16;;;;;;;9.23;6.33;;;;;;;20.69;38.99;100873.86;1713095;83;25384;-59
2024/02/16 10:49:45;;;;;;;7.87;6.12;;;;;;;20.47;39.83;100862.41;1713050;83;26226;-59
2024/02/16 10:52:15;;;;;;;9.53;6.80;;;;;;;20.43;40.37;100852.50;1713117;83;25684;-58
2024/02/16 10:54:43;;;;;;;7.37;5.42;;;;;;;20.30;39.86;100852.66;1712986;82;27322;-59
2024/02/16 10:57:12;;;;;;;12.55;6.33;;;;;;;20.41;40.54;100855.61;1713098;83;25400;-59
2024/02/16 10:59:47;;;;;;;8.65;6.30;;;;;;;20.28;39.24;100854.19;1713132;83;35277;-58
2024/02/16 11:02:14;;;;;;;11.35;6.50;;;;;;;19.86;39.13;100850.75;1712645;83;26624;-58
2024/02/16 11:04:45;;;;;;;8.90;6.10;;;;;;;19.66;39.66;100849.88;1712980;83;25391;-58
2024/02/16 11:07:19;;;;;;;11.60;7.20;;;;;;;19.42;39.72;100836.59;1713227;83;27337;-54
2024/02/16 11:09:48;;;;;;;9.83;7.17;;;;;;;19.29;40.35;100826.31;1713173;83;25700;-56
2024/02/16 11:12:17;;;;;;;13.22;6.87;;;;;;;19.29;40.67;100832.35;1693137;83;29736;-54
2024/02/16 11:14:52;;;;;;;12.37;7.67;;;;;;;20.01;41.36;100810.68;1713220;83;26339;-54
2024/02/16 11:17:23;;;;;;;10.50;6.33;;;;;;;20.66;40.42;100808.62;1712645;83;25415;-57
2024/02/16 11:19:54;;;;;;;9.78;6.67;;;;;;;21.36;40.20;100819.01;1713177;83;27352;-56
2024/02/16 11:22:23;;;;;;;10.85;7.55;;;;;;;21.30;38.70;100815.78;1713132;83;25611;-53
2024/02/16 11:24:54;;;;;;;10.05;7.00;;;;;;;21.23;38.32;100813.72;1693365;83;25553;-59
2024/02/16 11:27:21;;;;;;;15.95;13.08;;;;;;;21.12;38.81;100811.36;1713204;83;25959;-58
2024/02/16 11:29:51;;;;;;;8.80;6.67;;;;;;;20.87;38.62;100807.63;1713402;83;25468;-58
2024/02/16 11:32:21;;;;;;;9.15;6.45;;;;;;;20.65;38.89;100803.71;1713202;83;27212;-58